createdAt,value
2023-03-07T00:00:36.123Z,7.60
2023-03-07T00:03:38.424Z,8.10
2023-03-07T00:06:40.582Z,9.23
2023-03-07T00:09:43.025Z,8.07
2023-03-07T00:12:45.160Z,7.80
2023-03-07T00:15:47.180Z,9.30
2023-03-07T00:18:49.486Z,7.93
2023-03-07T00:21:51.648Z,8.50
2023-03-07T00:24:53.661Z,8.68
2023-03-07T00:27:58.147Z,8.77
2023-03-07T00:31:02.149Z,8.55
2023-03-07T00:34:04.908Z,8.13
2023-03-07T00:37:07.153Z,7.15
2023-03-07T00:40:10.083Z,8.15
2023-03-07T00:46:19.416Z,7.70
2023-03-07T00:49:21.747Z,7.90
2023-03-07T00:52:24.010Z,8.55
2023-03-07T00:55:26.229Z,8.05
2023-03-07T00:58:31.083Z,7.43
2023-03-07T01:01:33.189Z,8.30
2023-03-07T01:04:35.540Z,8.50
2023-03-07T01:07:37.978Z,7.97
2023-03-07T01:10:40.917Z,8.45
2023-03-07T01:13:43.267Z,7.60
2023-03-07T01:16:45.548Z,7.43
2023-03-07T01:19:47.680Z,7.47
2023-03-07T01:22:49.734Z,8.63
2023-03-07T01:25:51.758Z,7.45
2023-03-07T01:28:57.194Z,8.80
2023-03-07T01:31:59.951Z,7.50
2023-03-07T01:35:02.063Z,7.88
2023-03-07T01:38:05.370Z,8.75
2023-03-07T01:41:09.834Z,8.68
2023-03-07T01:47:24.303Z,8.25
2023-03-07T01:50:28.832Z,8.85
2023-03-07T01:53:31.249Z,8.27
2023-03-07T01:56:37.662Z,8.55
2023-03-07T01:59:44.297Z,8.82
2023-03-07T02:02:50.445Z,8.23
2023-03-07T02:06:06.822Z,8.20
2023-03-07T02:09:13.921Z,8.30
2023-03-07T02:12:16.489Z,9.10
2023-03-07T02:15:19.431Z,8.48
2023-03-07T02:18:27.013Z,8.38
2023-03-07T02:21:41.550Z,9.02
2023-03-07T02:24:50.624Z,9.45
2023-03-07T02:27:58.696Z,8.45
2023-03-07T02:31:04.883Z,9.70
2023-03-07T02:34:28.398Z,9.07
2023-03-07T02:37:42.969Z,8.68
2023-03-07T02:43:52.691Z,9.18
2023-03-07T02:46:54.978Z,9.23
2023-03-07T02:50:00.936Z,8.98
2023-03-07T02:53:03.696Z,8.75
2023-03-07T02:56:06.794Z,9.77
2023-03-07T02:59:09.096Z,9.30
2023-03-07T03:02:11.738Z,8.98
2023-03-07T03:05:13.868Z,8.45
2023-03-07T03:08:15.810Z,9.25
2023-03-07T03:11:17.835Z,8.65
2023-03-07T03:14:20.236Z,9.13
2023-03-07T03:17:22.328Z,8.63
2023-03-07T03:20:24.233Z,8.93
2023-03-07T03:23:28.531Z,9.32
2023-03-07T03:26:31.103Z,8.68
2023-03-07T03:29:33.289Z,8.55
2023-03-07T03:32:39.019Z,8.73
2023-03-07T03:35:41.726Z,8.48
2023-03-07T03:38:43.755Z,8.13
2023-03-07T03:41:45.876Z,8.18
2023-03-07T03:44:49.272Z,7.55
2023-03-07T03:47:51.408Z,7.97
2023-03-07T03:51:10.700Z,8.48
2023-03-07T03:54:12.628Z,7.20
2023-03-07T03:57:14.631Z,7.90
2023-03-07T04:00:17.555Z,8.05
2023-03-07T04:03:21.183Z,8.27
2023-03-07T04:06:25.829Z,8.15
2023-03-07T04:09:27.771Z,8.55
2023-03-07T04:12:29.639Z,7.65
2023-03-07T04:15:31.815Z,6.82
2023-03-07T04:18:35.165Z,7.50
2023-03-07T04:21:37.134Z,7.28
2023-03-07T04:24:39.132Z,7.00
2023-03-07T04:27:41.533Z,8.95
2023-03-07T04:30:43.848Z,7.50
2023-03-07T04:33:46.721Z,7.88
2023-03-07T04:36:48.627Z,7.95
2023-03-07T04:39:50.630Z,7.80
2023-03-07T04:42:53.000Z,7.22
2023-03-07T04:45:55.131Z,8.05
2023-03-07T04:48:57.058Z,7.72
2023-03-07T04:51:59.267Z,6.82
2023-03-07T04:55:01.280Z,7.68
2023-03-07T04:58:03.571Z,7.32
2023-03-07T05:01:06.193Z,7.50
2023-03-07T05:04:08.319Z,6.85
2023-03-07T05:07:10.588Z,6.70
2023-03-07T05:10:12.880Z,6.57
2023-03-07T05:13:15.159Z,6.63
2023-03-07T05:16:17.461Z,7.07
2023-03-07T05:19:20.049Z,6.75
2023-03-07T05:22:23.693Z,6.45
2023-03-07T05:25:25.877Z,8.30
2023-03-07T05:28:30.140Z,6.55
2023-03-07T05:31:32.075Z,7.57
2023-03-07T05:34:35.005Z,7.60
2023-03-07T05:37:37.242Z,7.25
2023-03-07T05:40:39.202Z,6.57
2023-03-07T05:43:42.519Z,6.65
2023-03-07T05:46:44.894Z,6.75
2023-03-07T05:49:47.028Z,7.32
2023-03-07T05:52:49.413Z,6.57
2023-03-07T05:55:51.394Z,6.47
2023-03-07T05:58:54.219Z,7.10
2023-03-07T06:01:56.351Z,7.22
2023-03-07T06:04:58.933Z,7.93
2023-03-07T06:08:00.905Z,7.15
2023-03-07T06:11:02.864Z,6.28
2023-03-07T06:14:04.711Z,7.03
2023-03-07T06:17:06.661Z,7.18
2023-03-07T06:23:13.313Z,6.72
2023-03-07T06:26:16.288Z,6.78
2023-03-07T06:29:21.749Z,6.50
2023-03-07T06:32:24.050Z,7.10
2023-03-07T06:35:26.155Z,6.43
2023-03-07T06:38:28.123Z,7.10
2023-03-07T06:41:30.106Z,7.05
2023-03-07T06:44:34.518Z,6.93
2023-03-07T06:47:36.678Z,7.15
2023-03-07T06:50:40.544Z,6.90
2023-03-07T06:53:42.779Z,7.20
2023-03-07T06:56:45.567Z,6.72
2023-03-07T06:59:51.234Z,7.20
2023-03-07T07:02:53.430Z,7.45
2023-03-07T07:05:55.748Z,6.53
2023-03-07T07:08:59.096Z,6.10
2023-03-07T07:12:06.759Z,5.65
2023-03-07T07:15:10.503Z,7.03
2023-03-07T07:18:13.570Z,6.53
2023-03-07T07:21:15.628Z,6.38
2023-03-07T07:24:17.934Z,6.40
2023-03-07T07:27:19.813Z,5.82
2023-03-07T07:33:25.119Z,6.43
2023-03-07T07:39:29.905Z,6.50
2023-03-07T07:42:32.461Z,6.93
2023-03-07T07:45:56.956Z,6.55
2023-03-07T07:48:59.659Z,6.43
2023-03-07T07:52:02.770Z,6.78
2023-03-07T07:55:05.341Z,6.65
2023-03-07T07:58:07.366Z,7.03
2023-03-07T08:01:17.276Z,6.30
2023-03-07T08:04:21.396Z,6.05
2023-03-07T08:07:23.364Z,6.72
2023-03-07T08:10:25.268Z,5.93
2023-03-07T08:13:29.640Z,6.07
2023-03-07T08:16:31.731Z,6.50
2023-03-07T08:19:33.726Z,5.88
2023-03-07T08:22:36.919Z,6.28
2023-03-07T08:25:39.107Z,6.90
2023-03-07T08:28:42.262Z,5.60
2023-03-07T08:31:45.456Z,5.72
2023-03-07T08:34:48.123Z,6.00
2023-03-07T08:37:55.220Z,6.43
2023-03-07T08:41:04.978Z,5.68
2023-03-07T08:44:06.938Z,6.15
2023-03-07T08:47:08.889Z,6.03
2023-03-07T08:50:11.308Z,5.53
2023-03-07T08:53:17.159Z,5.38
2023-03-07T08:56:20.037Z,5.20
2023-03-07T08:59:22.617Z,6.60
2023-03-07T09:02:24.597Z,6.93
2023-03-07T09:05:26.636Z,6.15
2023-03-07T09:08:31.019Z,5.03
2023-03-07T09:11:33.162Z,5.88
2023-03-07T09:14:35.206Z,6.15
2023-03-07T09:17:37.271Z,5.38
2023-03-07T09:20:39.605Z,5.72
2023-03-07T09:23:43.144Z,5.78
2023-03-07T09:26:45.225Z,5.90
2023-03-07T09:29:49.566Z,5.88
2023-03-07T09:32:52.177Z,5.82
2023-03-07T09:35:54.262Z,5.65
2023-03-07T09:38:58.424Z,5.60
2023-03-07T09:42:07.161Z,5.95
2023-03-07T09:45:15.486Z,5.45
2023-03-07T09:49:17.735Z,4.97
2023-03-07T09:52:23.257Z,5.70
2023-03-07T09:55:26.507Z,5.35
2023-03-07T09:58:28.653Z,5.57
2023-03-07T10:01:34.996Z,5.07
2023-03-07T10:05:15.935Z,6.00
2023-03-07T10:08:37.478Z,5.72
2023-03-07T10:11:42.634Z,5.03
2023-03-07T10:15:08.425Z,5.45
2023-03-07T10:18:51.197Z,5.63
2023-03-07T10:22:05.017Z,5.10
2023-03-07T10:25:53.969Z,5.70
2023-03-07T10:28:59.781Z,5.47
2023-03-07T10:32:21.981Z,5.00
2023-03-07T10:35:39.228Z,5.05
2023-03-07T10:39:15.154Z,4.47
2023-03-07T10:42:19.317Z,4.82
2023-03-07T10:45:21.977Z,4.93
2023-03-07T10:48:25.740Z,5.38
2023-03-07T10:51:45.750Z,5.28
2023-03-07T10:54:47.847Z,5.25
2023-03-07T10:57:49.874Z,5.65
2023-03-07T11:01:02.901Z,5.95
2023-03-07T11:04:21.732Z,5.10
2023-03-07T11:07:32.342Z,4.88
2023-03-07T11:10:40.217Z,5.35
2023-03-07T11:13:42.281Z,5.20
2023-03-07T11:16:50.477Z,4.78
2023-03-07T11:19:58.441Z,5.07
2023-03-07T11:23:14.110Z,5.07
2023-03-07T11:26:22.203Z,4.60
2023-03-07T11:29:24.328Z,5.53
2023-03-07T11:32:26.632Z,4.68
2023-03-07T11:35:42.487Z,4.80
2023-03-07T11:38:59.369Z,4.80
2023-03-07T11:42:08.286Z,5.07
2023-03-07T11:45:16.487Z,4.85
2023-03-07T11:48:33.981Z,5.80
2023-03-07T12:03:24.059Z,4.30
2023-03-07T12:06:34.414Z,4.57
2023-03-07T12:09:44.374Z,4.80
2023-03-07T12:12:56.220Z,5.03
2023-03-07T12:16:34.336Z,4.80
2023-03-07T12:20:13.927Z,4.90
2023-03-07T12:23:30.555Z,5.30
2023-03-07T12:26:59.084Z,5.22
2023-03-07T12:30:11.132Z,5.07
2023-03-07T12:33:46.004Z,4.75
2023-03-07T12:36:56.771Z,4.78
2023-03-07T12:40:00.949Z,4.68
2023-03-07T12:43:31.422Z,4.78
2023-03-07T12:46:44.032Z,4.65
2023-03-07T12:50:09.274Z,4.40
2023-03-07T12:53:23.240Z,4.10
2023-03-07T12:56:40.786Z,4.20
2023-03-07T12:59:44.445Z,3.90
2023-03-07T13:03:01.749Z,4.43
2023-03-07T13:06:04.140Z,4.20
2023-03-07T13:09:06.696Z,4.05
2023-03-07T13:12:14.741Z,3.63
2023-03-07T13:15:19.834Z,3.30
2023-03-07T13:18:28.843Z,3.58
2023-03-07T13:21:33.156Z,3.35
2023-03-07T13:24:39.842Z,3.30
2023-03-07T13:27:45.952Z,3.42
2023-03-07T13:31:26.457Z,3.33
2023-03-07T13:34:46.859Z,3.60
2023-03-07T13:37:53.527Z,3.13
2023-03-07T13:40:57.286Z,3.20
2023-03-07T13:44:01.090Z,3.95
2023-03-07T13:47:03.335Z,2.85
2023-03-07T13:50:34.627Z,3.38
2023-03-07T13:53:42.070Z,2.80
2023-03-07T13:56:44.246Z,3.17
2023-03-07T13:59:52.550Z,4.13
2023-03-07T14:02:56.141Z,3.85
2023-03-07T14:06:15.482Z,3.15
2023-03-07T14:09:27.337Z,3.00
2023-03-07T14:12:54.765Z,3.55
2023-03-07T14:16:09.443Z,3.40
2023-03-07T14:19:11.609Z,3.00
2023-03-07T14:22:44.896Z,3.42
2023-03-07T14:25:53.305Z,3.63
2023-03-07T14:29:01.088Z,3.53
2023-03-07T14:32:03.224Z,3.40
2023-03-07T14:35:05.601Z,3.35
2023-03-07T14:38:17.444Z,3.50
2023-03-07T14:41:45.229Z,3.45
2023-03-07T14:44:56.436Z,3.53
2023-03-07T14:48:10.501Z,3.58
2023-03-07T14:51:16.103Z,3.65
2023-03-07T14:54:22.641Z,3.30
2023-03-07T14:57:34.719Z,3.28
2023-03-07T15:00:36.883Z,3.55
2023-03-07T15:03:49.673Z,3.60
2023-03-07T15:07:00.283Z,3.72
2023-03-07T15:10:02.865Z,3.85
2023-03-07T15:13:13.759Z,3.88
2023-03-07T15:16:25.845Z,3.92
2023-03-07T15:19:51.654Z,3.90
2023-03-07T15:23:21.223Z,4.13
2023-03-07T15:26:25.163Z,4.80
2023-03-07T15:29:29.657Z,4.18
2023-03-07T15:32:36.458Z,4.03
2023-03-07T15:35:38.719Z,3.72
2023-03-07T15:38:52.129Z,3.67
2023-03-07T15:42:20.792Z,4.00
2023-03-07T15:45:38.531Z,3.90
2023-03-07T15:48:48.496Z,3.95
2023-03-07T15:51:57.178Z,4.50
2023-03-07T15:55:01.633Z,3.72
2023-03-07T15:58:11.967Z,4.40
2023-03-07T16:01:21.445Z,4.60
2023-03-07T16:04:41.796Z,4.38
2023-03-07T16:07:43.932Z,4.70
2023-03-07T16:14:02.869Z,4.20
2023-03-07T16:17:28.698Z,4.28
2023-03-07T16:20:32.219Z,4.45
2023-03-07T16:23:37.712Z,4.63
2023-03-07T16:26:44.092Z,4.53
2023-03-07T16:29:55.951Z,5.25
2023-03-07T16:32:58.702Z,5.00
2023-03-07T16:36:08.916Z,4.60
2023-03-07T16:39:17.085Z,4.93
2023-03-07T16:43:57.573Z,4.78
2023-03-07T16:47:06.481Z,4.50
2023-03-07T16:53:20.683Z,4.35
2023-03-07T16:56:33.438Z,4.97
2023-03-07T16:59:37.906Z,5.05
2023-03-07T17:02:39.965Z,4.30
2023-03-07T17:05:42.175Z,4.15
2023-03-07T17:08:45.234Z,4.70
2023-03-07T17:11:50.034Z,4.00
2023-03-07T17:14:52.487Z,4.25
2023-03-07T17:17:54.634Z,4.00
2023-03-07T17:20:56.811Z,4.68
2023-03-07T17:23:59.293Z,5.32
2023-03-07T17:27:02.048Z,4.28
2023-03-07T17:30:04.919Z,4.18
2023-03-07T17:36:11.519Z,4.10
2023-03-07T17:39:13.671Z,4.85
2023-03-07T17:42:15.777Z,4.88
2023-03-07T17:45:18.592Z,4.80
2023-03-07T17:48:20.623Z,4.03
2023-03-07T17:51:25.187Z,4.30
2023-03-07T17:54:27.361Z,4.20
2023-03-07T17:57:31.923Z,4.05
2023-03-07T18:00:34.621Z,4.30
2023-03-07T18:03:37.187Z,3.95
2023-03-07T18:06:40.929Z,4.40
2023-03-07T18:09:43.235Z,4.30
2023-03-07T18:12:45.385Z,4.18
2023-03-07T18:15:48.116Z,4.57
2023-03-07T18:18:59.518Z,4.03
2023-03-07T18:22:03.442Z,4.47
2023-03-07T18:25:07.630Z,4.45
2023-03-07T18:28:09.864Z,4.55
2023-03-07T18:31:15.477Z,4.43
2023-03-07T18:34:17.580Z,3.80
2023-03-07T18:37:20.277Z,3.95
2023-03-07T18:40:22.405Z,4.32
2023-03-07T18:43:24.585Z,3.88
2023-03-07T18:46:28.392Z,4.65
2023-03-07T18:49:30.648Z,4.63
2023-03-07T18:52:33.114Z,3.80
2023-03-07T18:55:38.411Z,4.50
2023-03-07T18:58:41.491Z,4.53
2023-03-07T19:01:44.171Z,4.32
2023-03-07T19:04:46.423Z,4.40
2023-03-07T19:07:48.544Z,4.90
2023-03-07T19:10:50.531Z,4.70
2023-03-07T19:13:52.803Z,4.72
2023-03-07T19:16:55.395Z,4.10
2023-03-07T19:19:57.440Z,5.38
2023-03-07T19:22:59.613Z,4.10
2023-03-07T19:26:07.045Z,4.32
2023-03-07T19:29:09.303Z,4.18
2023-03-07T19:32:11.648Z,4.40
2023-03-07T19:35:14.096Z,3.72
2023-03-07T19:38:16.405Z,4.47
2023-03-07T19:41:21.301Z,4.05
2023-03-07T19:44:23.355Z,4.65
2023-03-07T19:47:25.462Z,3.47
2023-03-07T19:50:27.548Z,4.55
2023-03-07T19:53:29.616Z,4.90
2023-03-07T19:56:32.545Z,4.50
2023-03-07T19:59:34.730Z,5.07
2023-03-07T20:02:36.847Z,4.43
2023-03-07T20:05:47.234Z,4.90
2023-03-07T20:08:51.360Z,4.10
2023-03-07T20:11:56.420Z,4.80
2023-03-07T20:14:58.663Z,4.47
2023-03-07T20:18:01.202Z,3.88
2023-03-07T20:21:08.886Z,4.85
2023-03-07T20:24:10.994Z,4.05
2023-03-07T20:27:13.136Z,4.63
2023-03-07T20:30:15.640Z,4.50
2023-03-07T20:33:17.672Z,4.03
2023-03-07T20:36:34.107Z,3.92
2023-03-07T20:39:38.782Z,3.80
2023-03-07T20:42:41.025Z,3.97
2023-03-07T20:45:43.252Z,4.40
2023-03-07T20:48:45.913Z,4.13
2023-03-07T20:51:47.999Z,3.83
2023-03-07T20:54:50.616Z,3.42
2023-03-07T20:57:52.854Z,3.70
2023-03-07T21:00:55.286Z,3.67
2023-03-07T21:04:04.335Z,3.78
2023-03-07T21:07:06.667Z,3.58
2023-03-07T21:10:09.335Z,4.07
2023-03-07T21:13:11.474Z,3.50
2023-03-07T21:16:16.910Z,4.28
2023-03-07T21:19:19.085Z,3.60
2023-03-07T21:22:21.183Z,3.88
2023-03-07T21:25:23.169Z,4.18
2023-03-07T21:28:25.284Z,4.15
2023-03-07T21:31:30.244Z,4.55
2023-03-07T21:34:32.424Z,3.85
2023-03-07T21:37:34.872Z,4.20
2023-03-07T21:40:36.994Z,3.85
2023-03-07T21:43:39.222Z,3.60
2023-03-07T21:46:41.378Z,3.90
2023-03-07T21:49:43.628Z,4.07
2023-03-07T21:52:45.727Z,4.28
2023-03-07T21:55:51.824Z,4.05
2023-03-07T21:58:53.904Z,3.90
2023-03-07T22:01:56.104Z,3.92
2023-03-07T22:04:58.531Z,4.40
2023-03-07T22:08:00.512Z,4.18
2023-03-07T22:11:04.645Z,4.50
2023-03-07T22:14:06.642Z,4.07
2023-03-07T22:17:08.837Z,4.13
2023-03-07T22:20:11.543Z,4.38
2023-03-07T22:23:13.672Z,4.18
2023-03-07T22:26:15.734Z,4.13
2023-03-07T22:29:17.935Z,4.00
2023-03-07T22:32:20.054Z,4.57
2023-03-07T22:35:22.649Z,4.20
2023-03-07T22:38:25.044Z,4.35
2023-03-07T22:41:27.164Z,4.22
2023-03-07T22:44:29.408Z,4.38
2023-03-07T22:47:31.546Z,4.32
2023-03-07T22:50:38.222Z,4.38
2023-03-07T22:53:40.435Z,4.22
2023-03-07T22:56:42.654Z,4.45
2023-03-07T22:59:44.723Z,4.18
2023-03-07T23:02:46.963Z,4.32
2023-03-07T23:05:48.996Z,4.38
2023-03-07T23:08:53.388Z,4.00
2023-03-07T23:11:55.394Z,4.47
2023-03-07T23:14:57.547Z,4.07
2023-03-07T23:17:59.806Z,4.63
2023-03-07T23:21:03.693Z,4.25
2023-03-07T23:24:06.086Z,4.78
2023-03-07T23:27:08.183Z,4.53
2023-03-07T23:30:11.145Z,4.40
2023-03-07T23:33:16.007Z,4.55
2023-03-07T23:36:18.163Z,4.78
2023-03-07T23:39:20.379Z,4.60
2023-03-07T23:42:22.514Z,4.65
2023-03-07T23:45:26.178Z,4.38
2023-03-07T23:48:28.368Z,4.10
2023-03-07T23:51:30.578Z,4.07
2023-03-07T23:54:32.648Z,4.57
2023-03-07T23:57:35.936Z,5.32
